createdAt,value
2018-12-31T00:00:33.069Z,79.69
2018-12-31T00:03:38.349Z,79.57
2018-12-31T00:06:43.755Z,79.68
2018-12-31T00:09:49.080Z,79.03
2018-12-31T00:12:54.544Z,79.47
2018-12-31T00:15:59.831Z,79.33
2018-12-31T00:19:05.236Z,79.66
2018-12-31T00:22:10.513Z,79.89
2018-12-31T00:25:15.922Z,79.65
2018-12-31T00:28:21.358Z,79.96
2018-12-31T00:31:26.825Z,79.96
2018-12-31T00:34:32.105Z,80.16
2018-12-31T00:37:37.612Z,80.30
2018-12-31T00:40:42.884Z,79.77
2018-12-31T00:43:48.303Z,79.22
2018-12-31T00:46:53.583Z,78.67
2018-12-31T00:49:58.987Z,78.84
2018-12-31T00:53:04.375Z,78.87
2018-12-31T00:56:09.886Z,78.61
2018-12-31T00:59:15.157Z,78.43
2018-12-31T01:02:20.572Z,78.26
2018-12-31T01:05:25.846Z,78.72
2018-12-31T01:08:31.364Z,78.78
2018-12-31T01:11:36.631Z,78.38
2018-12-31T01:14:42.051Z,79.07
2018-12-31T01:17:47.333Z,79.13
2018-12-31T01:20:52.757Z,78.73
2018-12-31T01:23:58.019Z,78.90
2018-12-31T01:27:03.445Z,78.97
2018-12-31T01:30:09.331Z,79.17
2018-12-31T01:33:14.740Z,79.46
2018-12-31T01:36:20.012Z,79.61
2018-12-31T01:39:25.428Z,79.39
2018-12-31T01:42:30.705Z,79.75
2018-12-31T01:45:36.204Z,79.75
2018-12-31T01:48:41.483Z,80.15
2018-12-31T01:51:47.013Z,80.10
2018-12-31T01:54:53.110Z,80.11
2018-12-31T01:57:58.522Z,79.98
2018-12-31T02:01:03.792Z,80.20
2018-12-31T02:04:09.209Z,80.27
2018-12-31T02:07:14.477Z,80.16
2018-12-31T02:10:19.903Z,80.46
2018-12-31T02:13:25.221Z,80.17
2018-12-31T02:16:30.584Z,80.57
2018-12-31T02:19:35.855Z,80.22
2018-12-31T02:22:41.275Z,80.83
2018-12-31T02:25:46.557Z,81.17
2018-12-31T02:28:52.324Z,81.05
2018-12-31T02:31:57.738Z,81.13
2018-12-31T02:35:03.374Z,81.02
2018-12-31T02:38:08.645Z,80.96
2018-12-31T02:41:14.066Z,81.06
2018-12-31T02:44:19.335Z,81.25
2018-12-31T02:47:24.749Z,81.15
2018-12-31T02:50:30.084Z,80.99
2018-12-31T02:53:35.542Z,80.96
2018-12-31T02:56:40.923Z,81.04
2018-12-31T02:59:46.652Z,80.93
2018-12-31T03:02:51.922Z,81.04
2018-12-31T03:05:57.333Z,81.06
2018-12-31T03:09:02.606Z,81.04
2018-12-31T03:12:08.019Z,81.04
2018-12-31T03:15:13.345Z,80.83
2018-12-31T03:18:18.815Z,81.13
2018-12-31T03:21:24.086Z,81.13
2018-12-31T03:24:29.603Z,81.08
2018-12-31T03:27:34.868Z,81.15
2018-12-31T03:30:40.251Z,81.28
2018-12-31T03:33:45.527Z,81.14
2018-12-31T03:36:51.190Z,81.15
2018-12-31T03:39:56.473Z,81.25
2018-12-31T03:43:02.284Z,81.12
2018-12-31T03:46:07.560Z,81.17
2018-12-31T03:49:12.978Z,81.04
2018-12-31T03:52:18.508Z,81.38
2018-12-31T03:55:23.887Z,81.24
2018-12-31T03:58:29.295Z,81.24
2018-12-31T04:01:34.648Z,81.29
2018-12-31T04:04:39.958Z,81.28
2018-12-31T04:07:52.767Z,81.24
2018-12-31T04:10:52.318Z,81.14
2018-12-31T04:13:57.781Z,81.22
2018-12-31T04:17:03.056Z,81.25
2018-12-31T04:20:08.467Z,81.06
2018-12-31T04:23:13.747Z,81.23
2018-12-31T04:26:19.166Z,81.10
2018-12-31T04:29:24.448Z,81.10
2018-12-31T04:32:30.161Z,81.31
2018-12-31T04:35:35.429Z,81.49
2018-12-31T04:38:40.847Z,81.64
2018-12-31T04:41:46.150Z,81.80
2018-12-31T04:44:51.540Z,81.97
2018-12-31T04:47:56.807Z,82.02
2018-12-31T04:51:02.225Z,81.82
2018-12-31T04:54:07.496Z,81.67
2018-12-31T04:57:12.911Z,81.66
2018-12-31T05:00:18.191Z,81.52
2018-12-31T05:03:23.604Z,81.37
2018-12-31T05:06:28.878Z,81.37
2018-12-31T05:09:34.393Z,81.53
2018-12-31T05:12:39.658Z,81.50
2018-12-31T05:15:45.090Z,81.52
2018-12-31T05:18:50.351Z,80.98
2018-12-31T05:21:55.716Z,81.17
2018-12-31T05:25:00.990Z,80.91
2018-12-31T05:28:06.358Z,81.08
2018-12-31T05:31:11.645Z,81.15
2018-12-31T05:34:17.048Z,81.02
2018-12-31T05:37:22.323Z,81.26
2018-12-31T05:40:27.676Z,80.97
2018-12-31T05:43:32.942Z,81.20
2018-12-31T05:46:38.330Z,81.17
2018-12-31T05:49:43.601Z,80.96
2018-12-31T05:52:48.957Z,81.25
2018-12-31T05:55:54.228Z,81.10
2018-12-31T05:58:59.599Z,81.17
2018-12-31T06:02:04.979Z,81.26
2018-12-31T06:05:10.599Z,81.20
2018-12-31T06:08:15.872Z,81.29
2018-12-31T06:11:21.266Z,81.45
2018-12-31T06:14:26.540Z,81.38
2018-12-31T06:17:31.903Z,81.43
2018-12-31T06:20:37.174Z,81.50
2018-12-31T06:23:42.564Z,81.18
2018-12-31T06:26:47.841Z,81.32
2018-12-31T06:29:53.253Z,81.41
2018-12-31T06:32:58.578Z,81.30
2018-12-31T06:36:03.936Z,81.25
2018-12-31T06:39:09.377Z,81.32
2018-12-31T06:42:14.834Z,81.33
2018-12-31T06:45:20.107Z,81.29
2018-12-31T06:48:25.468Z,81.34
2018-12-31T06:51:30.735Z,80.96
2018-12-31T06:54:36.089Z,80.91
2018-12-31T06:57:41.368Z,80.93
2018-12-31T07:00:46.865Z,81.09
2018-12-31T07:03:53.003Z,80.52
2018-12-31T07:06:58.517Z,80.75
2018-12-31T07:10:04.381Z,80.90
2018-12-31T07:13:09.717Z,80.78
2018-12-31T07:16:15.077Z,80.79
2018-12-31T07:19:20.508Z,80.81
2018-12-31T07:22:25.876Z,80.48
2018-12-31T07:25:31.301Z,80.45
2018-12-31T07:28:36.577Z,80.37
2018-12-31T07:31:41.947Z,80.43
2018-12-31T07:34:47.208Z,80.10
2018-12-31T07:37:52.676Z,79.92
2018-12-31T07:40:57.953Z,79.95
2018-12-31T07:44:03.370Z,79.64
2018-12-31T07:47:08.643Z,79.43
2018-12-31T07:50:14.056Z,79.38
2018-12-31T07:53:19.339Z,79.06
2018-12-31T07:56:24.757Z,78.65
2018-12-31T07:59:30.171Z,78.74
2018-12-31T08:02:35.642Z,78.84
2018-12-31T08:05:41.018Z,77.77
2018-12-31T08:08:46.431Z,77.81
2018-12-31T08:11:51.710Z,77.91
2018-12-31T08:14:57.121Z,77.25
2018-12-31T08:18:02.403Z,77.57
2018-12-31T08:21:07.914Z,77.74
2018-12-31T08:24:13.189Z,77.29
2018-12-31T08:27:18.599Z,77.58
2018-12-31T08:30:23.878Z,77.06
2018-12-31T08:33:29.292Z,77.26
2018-12-31T08:36:34.571Z,77.62
2018-12-31T08:39:39.982Z,77.43
2018-12-31T08:42:45.300Z,77.54
2018-12-31T08:45:50.770Z,77.95
2018-12-31T08:48:56.049Z,77.70
2018-12-31T08:52:01.561Z,77.95
2018-12-31T08:55:06.845Z,77.93
2018-12-31T08:58:12.206Z,77.99
2018-12-31T09:01:17.486Z,77.81
2018-12-31T09:04:22.941Z,77.54
2018-12-31T09:07:28.523Z,77.68
2018-12-31T09:10:34.246Z,77.30
2018-12-31T09:13:39.535Z,77.22
2018-12-31T09:16:44.935Z,77.18
2018-12-31T09:19:50.218Z,77.15
2018-12-31T09:22:55.624Z,76.99
2018-12-31T09:26:00.900Z,77.40
2018-12-31T09:29:06.322Z,77.48
2018-12-31T09:32:11.595Z,77.55
2018-12-31T09:35:17.003Z,77.07
2018-12-31T09:38:22.280Z,77.94
2018-12-31T09:41:27.699Z,76.98
2018-12-31T09:44:33.206Z,76.69
2018-12-31T09:47:38.566Z,76.28
2018-12-31T09:50:43.841Z,76.75
2018-12-31T09:53:49.276Z,76.41
2018-12-31T09:56:54.554Z,75.94
2018-12-31T10:00:00.087Z,76.36
2018-12-31T10:03:05.425Z,76.13
2018-12-31T10:06:10.869Z,75.96
2018-12-31T10:09:17.005Z,76.00
2018-12-31T10:12:22.469Z,76.22
2018-12-31T10:15:27.813Z,76.27
2018-12-31T10:18:33.263Z,76.71
2018-12-31T10:21:41.077Z,76.75
2018-12-31T10:24:45.898Z,75.98
2018-12-31T10:27:51.171Z,76.08
2018-12-31T10:30:56.926Z,75.76
2018-12-31T10:34:02.206Z,75.62
2018-12-31T10:37:07.693Z,76.23
2018-12-31T10:40:12.962Z,76.03
2018-12-31T10:43:18.517Z,76.31
2018-12-31T10:46:23.793Z,76.51
2018-12-31T10:49:29.166Z,76.35
2018-12-31T10:52:34.768Z,75.36
2018-12-31T10:55:40.174Z,75.69
2018-12-31T10:58:45.446Z,74.67
2018-12-31T11:01:50.852Z,75.68
2018-12-31T11:04:56.240Z,74.78
2018-12-31T11:08:01.648Z,74.94
2018-12-31T11:11:07.761Z,74.25
2018-12-31T11:14:13.153Z,74.27
2018-12-31T11:17:18.441Z,74.35
2018-12-31T11:20:23.844Z,74.04
2018-12-31T11:23:29.124Z,73.68
2018-12-31T11:26:34.534Z,73.99
2018-12-31T11:29:39.912Z,73.62
2018-12-31T11:32:45.327Z,74.20
2018-12-31T11:35:50.598Z,72.97
2018-12-31T11:38:56.047Z,72.73
2018-12-31T11:42:01.532Z,73.67
2018-12-31T11:45:07.401Z,73.55
2018-12-31T11:48:12.692Z,73.43
2018-12-31T11:51:18.311Z,73.51
2018-12-31T11:54:23.597Z,73.46
2018-12-31T11:57:31.873Z,74.11
2018-12-31T12:00:37.224Z,73.60
2018-12-31T12:03:42.925Z,73.83
2018-12-31T12:06:48.196Z,72.55
2018-12-31T12:09:53.657Z,73.34
2018-12-31T12:12:59.389Z,73.39
2018-12-31T12:16:04.861Z,73.83
2018-12-31T12:19:10.142Z,73.94
2018-12-31T12:22:15.550Z,73.89
2018-12-31T12:25:21.405Z,73.28
2018-12-31T12:28:26.852Z,73.70
2018-12-31T12:31:32.131Z,72.99
2018-12-31T12:34:37.550Z,72.59
2018-12-31T12:37:48.439Z,72.28
2018-12-31T12:40:50.074Z,72.59
2018-12-31T12:43:55.356Z,72.73
2018-12-31T12:47:00.874Z,72.75
2018-12-31T12:50:06.799Z,73.24
2018-12-31T12:53:12.167Z,72.45
2018-12-31T12:56:17.461Z,72.53
2018-12-31T12:59:22.863Z,72.92
2018-12-31T13:02:28.211Z,72.87
2018-12-31T13:05:33.754Z,72.85
2018-12-31T13:08:39.136Z,73.02
2018-12-31T13:11:44.548Z,73.17
2018-12-31T13:14:50.636Z,73.08
2018-12-31T13:17:56.052Z,72.96
2018-12-31T13:21:01.328Z,72.12
2018-12-31T13:24:06.911Z,73.06
2018-12-31T13:27:12.180Z,72.54
2018-12-31T13:30:17.636Z,73.15
2018-12-31T13:33:22.918Z,72.93
2018-12-31T13:36:30.577Z,72.52
2018-12-31T13:39:35.896Z,72.60
2018-12-31T13:42:41.368Z,72.87
2018-12-31T13:45:46.649Z,73.34
2018-12-31T13:48:52.575Z,73.40
2018-12-31T13:51:58.177Z,72.84
2018-12-31T13:55:03.568Z,73.22
2018-12-31T13:58:09.953Z,73.15
2018-12-31T14:01:15.584Z,72.85
2018-12-31T14:04:20.936Z,73.71
2018-12-31T14:07:27.099Z,73.66
2018-12-31T14:10:32.379Z,73.95
2018-12-31T14:13:38.097Z,73.93
2018-12-31T14:16:44.321Z,74.10
2018-12-31T14:19:49.704Z,73.97
2018-12-31T14:22:55.642Z,74.22
2018-12-31T14:26:01.284Z,74.17
2018-12-31T14:29:06.567Z,74.08
2018-12-31T14:32:12.109Z,74.44
2018-12-31T14:35:17.454Z,74.49
2018-12-31T14:38:22.814Z,74.15
2018-12-31T14:41:28.154Z,74.78
2018-12-31T14:44:33.585Z,74.20
2018-12-31T14:47:39.132Z,74.70
2018-12-31T14:50:44.591Z,74.74
2018-12-31T14:53:49.871Z,74.91
2018-12-31T14:56:55.277Z,74.89
2018-12-31T15:00:00.554Z,74.89
2018-12-31T15:03:06.097Z,74.84
2018-12-31T15:06:11.380Z,74.79
2018-12-31T15:09:17.016Z,75.19
2018-12-31T15:12:22.559Z,74.99
2018-12-31T15:15:27.958Z,75.08
2018-12-31T15:18:34.916Z,75.01
2018-12-31T15:21:40.491Z,74.86
2018-12-31T15:24:46.226Z,75.02
2018-12-31T15:27:53.743Z,74.64
2018-12-31T15:30:59.025Z,74.58
2018-12-31T15:34:04.428Z,74.62
2018-12-31T15:37:10.092Z,74.53
2018-12-31T15:40:15.527Z,74.56
2018-12-31T15:43:20.801Z,74.70
2018-12-31T15:46:26.319Z,74.62
2018-12-31T15:49:31.593Z,74.68
2018-12-31T15:52:37.031Z,73.94
2018-12-31T15:55:42.817Z,74.55
2018-12-31T15:58:48.196Z,74.27
2018-12-31T16:01:53.472Z,74.38
2018-12-31T16:04:58.897Z,74.33
2018-12-31T16:08:04.186Z,73.93
2018-12-31T16:11:09.698Z,73.99
2018-12-31T16:14:15.008Z,73.80
2018-12-31T16:17:20.483Z,73.72
2018-12-31T16:20:25.908Z,73.35
2018-12-31T16:23:33.735Z,73.66
2018-12-31T16:26:39.016Z,73.27
2018-12-31T16:29:44.448Z,73.21
2018-12-31T16:32:49.721Z,73.54
2018-12-31T16:35:55.829Z,73.69
2018-12-31T16:39:01.149Z,73.95
2018-12-31T16:42:06.619Z,74.12
2018-12-31T16:45:11.904Z,74.15
2018-12-31T16:48:17.307Z,73.91
2018-12-31T16:51:22.592Z,73.97
2018-12-31T16:54:27.994Z,73.98
2018-12-31T16:57:33.277Z,73.78
2018-12-31T17:00:38.689Z,73.33
2018-12-31T17:03:43.970Z,73.66
2018-12-31T17:06:49.374Z,73.72
2018-12-31T17:09:54.661Z,73.83
2018-12-31T17:13:00.030Z,73.60
2018-12-31T17:16:05.304Z,73.73
2018-12-31T17:19:10.753Z,73.90
2018-12-31T17:22:16.132Z,73.88
2018-12-31T17:25:21.908Z,74.10
2018-12-31T17:28:27.453Z,74.45
2018-12-31T17:31:32.850Z,73.99
2018-12-31T17:34:38.131Z,74.56
2018-12-31T17:37:43.541Z,74.20
2018-12-31T17:40:48.827Z,74.56
2018-12-31T17:43:54.229Z,74.66
2018-12-31T17:46:59.550Z,74.64
2018-12-31T17:50:07.361Z,74.39
2018-12-31T17:53:12.641Z,74.55
2018-12-31T17:56:18.385Z,74.59
2018-12-31T17:59:26.222Z,74.69
2018-12-31T18:02:31.615Z,74.57
2018-12-31T18:05:36.942Z,74.69
2018-12-31T18:08:42.717Z,74.69
2018-12-31T18:11:47.994Z,74.61
2018-12-31T18:14:53.411Z,74.68
2018-12-31T18:17:58.693Z,74.56
2018-12-31T18:21:04.102Z,74.27
2018-12-31T18:24:09.473Z,74.67
2018-12-31T18:27:14.987Z,74.57
2018-12-31T18:30:20.271Z,74.12
2018-12-31T18:33:25.682Z,74.50
2018-12-31T18:36:30.957Z,74.70
2018-12-31T18:39:36.377Z,74.57
2018-12-31T18:42:41.645Z,74.74
2018-12-31T18:45:47.063Z,74.72
2018-12-31T18:48:52.344Z,75.13
2018-12-31T18:51:58.110Z,75.37
2018-12-31T18:55:03.847Z,75.14
2018-12-31T18:58:09.258Z,75.58
2018-12-31T19:01:14.581Z,75.55
2018-12-31T19:04:20.050Z,75.67
2018-12-31T19:07:25.335Z,75.53
2018-12-31T19:10:30.741Z,75.54
2018-12-31T19:13:36.031Z,75.30
2018-12-31T19:16:41.542Z,75.21
2018-12-31T19:19:47.133Z,75.44
2018-12-31T19:22:52.632Z,75.36
2018-12-31T19:25:58.077Z,75.55
2018-12-31T19:29:03.486Z,75.19
2018-12-31T19:32:08.774Z,75.35
2018-12-31T19:35:14.217Z,75.01
2018-12-31T19:38:19.499Z,75.30
2018-12-31T19:41:25.313Z,75.34
2018-12-31T19:44:30.597Z,75.21
2018-12-31T19:47:36.001Z,75.17
2018-12-31T19:50:41.289Z,75.16
2018-12-31T19:53:46.691Z,74.98
2018-12-31T19:56:51.986Z,74.91
2018-12-31T19:59:57.381Z,74.81
2018-12-31T20:03:02.712Z,74.72
2018-12-31T20:06:08.180Z,74.61
2018-12-31T20:09:13.462Z,74.33
2018-12-31T20:12:18.862Z,74.39
2018-12-31T20:15:24.520Z,74.22
2018-12-31T20:18:29.963Z,74.18
2018-12-31T20:21:35.241Z,73.78
2018-12-31T20:24:40.609Z,73.91
2018-12-31T20:27:45.967Z,73.97
2018-12-31T20:30:51.443Z,73.91
2018-12-31T20:33:56.762Z,73.64
2018-12-31T20:37:02.436Z,73.88
2018-12-31T20:40:08.164Z,74.01
2018-12-31T20:43:13.647Z,74.29
2018-12-31T20:46:18.924Z,73.91
2018-12-31T20:49:24.690Z,74.18
2018-12-31T20:52:30.062Z,73.87
2018-12-31T20:55:35.537Z,73.80
2018-12-31T20:58:41.201Z,73.66
2018-12-31T21:01:46.630Z,73.81
2018-12-31T21:04:51.962Z,74.12
2018-12-31T21:07:57.422Z,73.76
2018-12-31T21:11:02.703Z,73.71
2018-12-31T21:14:08.109Z,73.97
2018-12-31T21:17:13.391Z,73.47
2018-12-31T21:20:18.759Z,73.61
2018-12-31T21:23:24.124Z,73.76
2018-12-31T21:26:29.593Z,73.42
2018-12-31T21:29:34.976Z,73.32
2018-12-31T21:32:40.586Z,73.50
2018-12-31T21:35:45.869Z,73.12
2018-12-31T21:38:51.536Z,73.32
2018-12-31T21:41:56.810Z,73.02
2018-12-31T21:45:02.274Z,73.10
2018-12-31T21:48:07.561Z,73.31
2018-12-31T21:51:12.963Z,73.29
2018-12-31T21:54:18.243Z,73.14
2018-12-31T21:57:23.650Z,73.00
2018-12-31T22:00:28.933Z,72.67
2018-12-31T22:03:34.366Z,72.44
2018-12-31T22:06:40.123Z,72.52
2018-12-31T22:09:45.545Z,72.51
2018-12-31T22:12:50.827Z,72.09
2018-12-31T22:15:56.229Z,71.88
2018-12-31T22:19:01.520Z,71.71
2018-12-31T22:22:06.922Z,72.27
2018-12-31T22:25:12.248Z,71.80
2018-12-31T22:28:17.710Z,71.76
2018-12-31T22:31:23.806Z,71.17
2018-12-31T22:34:29.231Z,71.58
2018-12-31T22:37:34.509Z,71.96
2018-12-31T22:40:40.213Z,71.62
2018-12-31T22:43:45.495Z,71.55
2018-12-31T22:46:50.904Z,71.40
2018-12-31T22:49:56.190Z,71.38
2018-12-31T22:53:01.600Z,71.37
2018-12-31T22:56:06.877Z,71.47
2018-12-31T22:59:12.254Z,71.17
2018-12-31T23:02:17.542Z,71.12
2018-12-31T23:05:23.105Z,71.26
2018-12-31T23:08:28.387Z,71.34
2018-12-31T23:11:33.768Z,71.47
2018-12-31T23:14:39.051Z,71.34
2018-12-31T23:17:44.462Z,71.35
2018-12-31T23:20:49.738Z,71.83
2018-12-31T23:23:55.146Z,71.83
2018-12-31T23:27:00.803Z,71.33
2018-12-31T23:30:10.011Z,71.53
2018-12-31T23:33:16.429Z,71.70
2018-12-31T23:36:21.844Z,71.72
2018-12-31T23:39:27.497Z,71.03
2018-12-31T23:42:33.051Z,71.13
2018-12-31T23:45:38.328Z,70.98
2018-12-31T23:48:43.837Z,71.07
2018-12-31T23:51:49.122Z,70.67
2018-12-31T23:54:54.530Z,70.83
2018-12-31T23:57:59.805Z,70.85
